.
WxDataArchive / Data Records for 2015-09-28
2015-09-27 September 2015 2015-09-29

Data Records for Monday, 28 September 2015

Time	Temp	Chill	HIndex	Humid	Dewpt	 Wind 	HiWind	WindDir	Rain 	Barom
-----	----	-----	------	-----	-----	------	------	-------	-----	-----
00:00	70.9	70.9	70.9	73	61.8	0	1	90	0.00	30.029 
00:05	70.9	70.9	70.9	73	61.8	0	2	90	0.00	30.029 
00:10	70.9	70.9	70.9	74	62.2	0	1	90	0.00	30.029 
00:15	70.9	70.9	70.9	74	62.2	0	1	90	0.00	30.027 
00:20	70.9	70.9	70.9	74	62.2	0	3	315	0.00	30.027 
00:25	70.8	70.8	70.8	75	62.5	0	2	338	0.00	30.027 
00:30	70.8	70.8	70.8	75	62.5	0	1	338	0.00	30.028 
00:35	70.6	70.6	70.6	75	62.3	0	3	90	0.00	30.028 
00:40	70.6	70.6	70.6	76	62.7	0	3	90	0.00	30.028 
00:45	70.4	70.4	70.4	76	62.5	0	2	90	0.00	30.029 
00:50	70.3	70.3	70.3	76	62.4	0	3	112	0.00	30.029 
00:55	70.3	70.3	70.3	77	62.7	1	3	112	0.00	30.029 
01:00	70.1	70.1	70.1	77	62.5	0	2	112	0.00	30.029 
01:05	69.9	69.9	69.9	77	62.3	0	2	112	0.00	30.029 
01:10	69.8	69.8	69.8	77	62.3	0	3	112	0.00	30.029 
01:15	69.6	69.6	69.6	78	62.4	1	4	112	0.00	30.027 
01:20	69.4	69.4	69.4	78	62.2	0	3	112	0.00	30.027 
01:25	69.3	69.3	69.3	78	62.1	1	4	68	0.00	30.027 
01:30	69.3	69.3	69.3	78	62.1	0	2	68	0.00	30.026 
01:35	69.1	69.1	69.1	79	62.3	0	2	68	0.00	30.026 
01:40	68.9	68.9	68.9	79	62.1	0	4	68	0.00	30.026 
01:45	68.8	68.8	68.8	79	62.0	0	2	68	0.00	30.024 
01:50	68.6	68.6	68.6	80	62.2	0	2	22	0.00	30.024 
01:55	68.4	68.4	68.4	80	62.0	0	3	22	0.00	30.024 
02:00	68.3	68.3	68.3	81	62.2	0	1	22	0.00	30.024 
02:05	68.1	68.1	68.1	81	62.0	0	1	22	0.00	30.024 
02:10	67.9	67.9	67.9	81	61.8	0	1	22	0.00	30.024 
02:15	67.8	67.8	67.8	82	62.1	0	1	22	0.00	30.020 
02:20	67.6	67.6	67.6	82	61.9	0	1	22	0.00	30.020 
02:25	67.6	67.6	67.6	82	61.9	0	2	22	0.00	30.020 
02:30	67.4	67.4	67.4	83	62.0	0	1	22	0.00	30.017 
02:35	67.3	67.3	67.3	83	62.0	0	1	22	0.00	30.017 
02:40	67.3	67.3	67.3	83	62.0	0	2	22	0.00	30.017 
02:45	67.1	67.1	67.1	84	62.1	0	1	22	0.00	30.016 
02:50	66.9	66.9	66.9	84	61.9	0	1	22	0.00	30.016 
02:55	66.9	66.9	66.9	84	61.9	0	0	---	0.00	30.016 
03:00	66.8	66.8	66.8	84	61.8	0	1	22	0.00	30.014 
03:05	66.8	66.8	66.8	84	61.8	0	0	---	0.00	30.014 
03:10	66.6	66.6	66.6	84	61.6	0	0	---	0.00	30.014 
03:15	66.4	66.4	66.4	85	61.7	0	0	---	0.00	30.013 
03:20	66.4	66.4	66.4	85	61.7	0	0	---	0.00	30.013 
03:25	66.3	66.3	66.3	85	61.6	0	0	---	0.00	30.013 
03:30	66.1	66.1	66.1	85	61.5	0	0	---	0.00	30.013 
03:35	66.0	66.0	66.0	85	61.4	0	0	---	0.00	30.013 
03:40	65.8	65.8	65.8	86	61.5	0	0	---	0.00	30.013 
03:45	65.8	65.8	65.8	86	61.5	0	0	---	0.00	30.013 
03:50	65.6	65.6	65.6	86	61.3	0	0	---	0.00	30.013 
03:55	65.5	65.5	65.5	86	61.2	0	0	---	0.00	30.013 
04:00	65.3	65.3	65.3	87	61.3	0	0	---	0.00	30.012 
04:05	65.2	65.2	65.2	87	61.2	0	0	---	0.00	30.012 
04:10	65.0	65.0	65.0	87	61.0	0	0	---	0.00	30.012 
04:15	65.0	65.0	65.0	88	61.4	0	0	---	0.00	30.008 
04:20	64.8	64.8	64.8	88	61.2	0	0	---	0.00	30.008 
04:25	64.8	64.8	64.8	88	61.2	0	0	---	0.00	30.008 
04:30	64.8	64.8	64.8	88	61.2	0	0	---	0.00	30.007 
04:35	64.8	64.8	64.8	88	61.2	0	0	---	0.00	30.007 
04:40	64.8	64.8	64.8	89	61.5	0	0	---	0.00	30.007 
04:45	64.8	64.8	64.8	89	61.5	0	0	---	0.00	30.008 
04:50	64.8	64.8	64.8	89	61.5	0	0	---	0.00	30.008 
04:55	64.8	64.8	64.8	89	61.5	0	0	---	0.00	30.008 
05:00	64.7	64.7	64.7	89	61.4	0	0	---	0.00	30.008 
05:05	64.7	64.7	64.7	89	61.4	0	0	---	0.00	30.008 
05:10	64.5	64.5	64.5	89	61.2	0	0	---	0.00	30.008 
05:15	64.3	64.3	64.3	89	61.0	0	0	---	0.00	30.008 
05:20	64.2	64.2	64.2	89	60.9	0	0	---	0.00	30.008 
05:25	64.0	64.0	64.0	89	60.7	0	0	---	0.00	30.008 
05:30	63.9	63.9	63.9	89	60.6	0	0	---	0.00	30.010 
05:35	63.7	63.7	63.7	89	60.4	0	0	---	0.00	30.010 
05:40	63.4	63.4	63.4	89	60.1	0	0	---	0.00	30.010 
05:45	63.2	63.2	63.2	90	60.2	0	0	---	0.00	30.011 
05:50	63.1	63.1	63.1	90	60.1	0	0	---	0.00	30.011 
05:55	62.9	62.9	62.9	90	59.9	0	0	---	0.00	30.011 
06:00	62.7	62.7	62.7	90	59.7	0	0	---	0.00	30.013 
06:05	62.6	62.6	62.6	91	59.9	0	0	---	0.00	30.013 
06:10	62.6	62.6	62.6	91	59.9	0	0	---	0.00	30.013 
06:15	62.4	62.4	62.4	91	59.7	0	0	---	0.00	30.017 
06:20	62.3	62.3	62.3	91	59.6	0	0	---	0.00	30.017 
06:25	62.1	62.1	62.1	91	59.4	0	0	---	0.00	30.017 
06:30	62.1	62.1	62.1	91	59.4	0	0	---	0.00	30.016 
06:35	62.0	62.0	62.0	92	59.6	0	0	---	0.00	30.016 
06:40	62.0	62.0	62.0	92	59.6	0	0	---	0.00	30.016 
06:45	62.0	62.0	62.0	92	59.6	0	0	---	0.00	30.019 
06:50	62.1	62.1	62.1	92	59.7	0	0	---	0.00	30.019 
06:55	62.1	62.1	62.1	92	59.7	0	0	---	0.00	30.019 
07:00	62.0	62.0	62.0	92	59.6	0	0	---	0.00	30.020 
07:05	62.0	62.0	62.0	92	59.6	0	0	---	0.00	30.020 
07:10	61.8	61.8	61.8	93	59.8	0	0	---	0.00	30.020 
07:15	61.6	61.6	61.6	93	59.6	0	0	---	0.00	30.022 
07:20	61.6	61.6	61.6	93	59.6	0	0	---	0.00	30.022 
07:25	61.5	61.5	61.5	93	59.5	0	0	---	0.00	30.022 
07:30	61.3	61.3	61.3	93	59.3	0	0	---	0.00	30.023 
07:35	61.2	61.2	61.2	93	59.2	0	0	---	0.00	30.023 
07:40	61.2	61.2	61.2	93	59.2	0	0	---	0.00	30.023 
07:45	61.2	61.2	61.2	93	59.2	0	0	---	0.00	30.026 
07:50	61.3	61.3	61.3	93	59.3	0	0	---	0.00	30.026 
07:55	61.5	61.5	61.5	94	59.8	0	0	---	0.00	30.026 
08:00	61.8	61.8	61.8	94	60.1	0	0	---	0.00	30.030 
08:05	62.1	62.1	62.1	94	60.3	0	0	---	0.00	30.030 
08:10	62.4	62.4	62.4	94	60.6	0	0	---	0.00	30.030 
08:15	62.6	62.6	62.6	94	60.8	0	0	---	0.00	30.030 
08:20	62.7	62.7	62.7	94	60.9	0	0	---	0.00	30.030 
08:25	62.7	62.7	62.7	94	60.9	0	0	---	0.00	30.030 
08:30	62.9	62.9	62.9	94	61.1	0	0	---	0.00	30.028 
08:35	63.1	63.1	63.1	94	61.3	0	0	---	0.00	30.028 
08:40	63.1	63.1	63.1	94	61.3	0	0	---	0.00	30.028 
08:45	63.2	63.2	63.2	94	61.4	0	0	---	0.00	30.034 
08:50	63.2	63.2	63.2	94	61.4	0	0	---	0.00	30.034 
08:55	63.2	63.2	63.2	94	61.4	0	0	---	0.00	30.034 
09:00	63.4	63.4	63.4	94	61.6	0	0	---	0.00	30.034 
09:05	63.4	63.4	63.4	94	61.6	0	1	22	0.00	30.034 
09:10	63.5	63.5	63.5	94	61.7	0	1	22	0.00	30.034 
09:15	63.7	63.7	63.7	94	61.9	0	0	---	0.00	30.036 
09:20	63.9	63.9	63.9	94	62.1	0	0	---	0.00	30.036 
09:25	63.9	63.9	63.9	94	62.1	0	0	---	0.00	30.036 
09:30	64.0	64.0	64.0	94	62.2	0	0	---	0.00	30.035 
09:35	64.2	64.2	64.2	94	62.4	0	1	22	0.00	30.035 
09:40	64.3	64.3	64.3	94	62.5	0	0	---	0.00	30.035 
09:45	64.5	64.5	64.5	93	62.4	0	0	---	0.00	30.032 
09:50	64.7	64.7	64.7	93	62.6	0	0	---	0.00	30.032 
09:55	64.8	64.8	64.8	93	62.7	0	0	---	0.00	30.032 
10:00	65.0	65.0	65.0	93	62.9	0	0	---	0.00	30.033 
10:05	65.3	65.3	65.3	93	63.2	0	0	---	0.00	30.033 
10:10	65.3	65.3	65.3	92	62.9	0	1	22	0.00	30.033 
10:15	65.6	65.6	65.6	92	63.2	0	0	---	0.00	30.033 
10:20	65.8	65.8	65.8	92	63.4	0	1	22	0.00	30.033 
10:25	66.1	66.1	66.1	91	63.4	0	1	22	0.00	30.033 
10:30	66.4	66.4	66.4	91	63.7	0	1	22	0.00	30.033 
10:35	66.8	66.8	66.8	90	63.8	0	0	---	0.00	30.033 
10:40	67.4	67.4	67.4	89	64.0	0	1	22	0.00	30.033 
10:45	68.3	68.3	68.3	88	64.6	0	1	22	0.00	30.027 
10:50	69.3	69.3	69.3	85	64.6	0	2	22	0.00	30.027 
10:55	70.6	70.6	70.6	81	64.5	0	2	22	0.00	30.027 
11:00	71.5	71.5	71.5	79	64.6	0	2	22	0.00	30.024 
11:05	72.1	72.1	72.1	77	64.5	0	1	22	0.00	30.024 
11:10	73.0	73.0	73.0	75	64.6	0	1	22	0.00	30.024 
11:15	73.5	73.5	73.5	74	64.7	0	2	22	0.00	30.021 
11:20	74.2	74.2	74.2	73	65.0	0	1	22	0.00	30.021 
11:25	74.9	74.9	74.9	72	65.2	0	2	22	0.00	30.021 
11:30	75.4	75.4	76.9	72	65.7	0	2	22	0.00	30.014 
11:35	75.4	75.4	77.1	70	64.9	0	1	22	0.00	30.014 
11:40	75.4	75.4	77.0	71	65.3	0	1	22	0.00	30.014 
11:45	75.8	75.8	77.4	71	65.7	0	1	22	0.00	30.011 
11:50	75.8	75.8	77.4	71	65.7	0	2	22	0.00	30.011 
11:55	76.1	76.1	77.8	69	65.2	0	2	22	0.00	30.011 
12:00	76.5	76.5	78.2	69	65.6	0	2	22	0.00	30.009 
12:05	76.7	76.7	78.5	68	65.3	0	2	22	0.00	30.009 
12:10	76.8	76.8	78.6	68	65.4	0	1	22	0.00	30.009 
12:15	77.2	77.2	79.0	69	66.2	0	1	22	0.00	30.007 
12:20	77.7	77.7	79.6	66	65.4	0	2	22	0.00	30.007 
12:25	78.1	78.1	80.0	66	65.8	0	1	22	0.00	30.007 
12:30	78.5	78.5	80.4	65	65.7	0	1	22	0.00	29.996 
12:35	78.3	78.3	80.2	64	65.1	0	3	22	0.00	29.996 
12:40	78.3	78.3	80.2	65	65.5	0	3	22	0.00	29.996 
12:45	78.6	78.6	80.6	65	65.8	0	1	45	0.00	29.996 
12:50	78.3	78.3	80.2	64	65.1	1	2	0	0.00	29.996 
12:55	77.9	77.9	79.7	65	65.2	0	1	0	0.00	29.996 
13:00	77.9	77.9	79.7	64	64.7	0	1	0	0.00	29.992 
13:05	77.7	77.7	79.5	64	64.5	0	1	0	0.00	29.992 
13:10	77.7	77.7	79.5	65	65.0	0	1	0	0.00	29.992 
13:15	77.9	77.9	79.7	65	65.2	0	1	0	0.00	29.992 
13:20	77.9	77.9	79.7	64	64.7	0	1	0	0.00	29.992 
13:25	77.7	77.7	79.5	65	65.0	0	0	---	0.00	29.992 
13:30	77.7	77.7	79.5	65	65.0	0	1	0	0.00	29.987 
13:35	77.6	77.6	79.4	65	64.9	0	1	0	0.00	29.987 
13:40	77.6	77.6	79.4	65	64.9	0	2	0	0.00	29.987 
13:45	77.6	77.6	79.4	65	64.9	0	2	0	0.00	29.979 
13:50	77.6	77.6	79.4	65	64.9	0	1	0	0.00	29.979 
13:55	77.9	77.9	79.7	65	65.2	0	1	0	0.00	29.979 
14:00	78.1	78.1	80.0	65	65.4	0	2	0	0.00	29.971 
14:05	78.3	78.3	80.1	63	64.6	0	1	0	0.00	29.971 
14:10	78.3	78.3	80.1	62	64.2	0	1	0	0.00	29.971 
14:15	78.3	78.3	80.1	62	64.2	0	1	0	0.00	29.967 
14:20	78.6	78.6	80.4	62	64.5	0	1	0	0.00	29.967 
14:25	78.8	78.8	80.6	62	64.7	0	2	0	0.00	29.967 
14:30	79.2	79.2	80.7	58	63.1	0	2	0	0.00	29.962 
14:35	79.4	79.4	81.0	59	63.8	0	2	0	0.00	29.962 
14:40	79.4	79.4	80.9	58	63.3	0	2	0	0.00	29.962 
14:45	79.2	79.2	80.7	58	63.1	0	1	0	0.00	29.953 
14:50	79.2	79.2	80.8	59	63.6	0	1	0	0.00	29.953 
14:55	79.8	79.8	81.5	59	64.2	0	1	0	0.00	29.953 
15:00	80.1	80.1	81.7	58	64.0	1	3	90	0.00	29.948 
15:05	79.8	79.8	81.4	58	63.7	0	1	45	0.00	29.948 
15:10	79.6	79.6	81.3	59	64.0	0	2	292	0.00	29.948 
15:15	79.4	79.4	81.0	59	63.8	0	1	292	0.00	29.946 
15:20	79.4	79.4	81.1	60	64.3	0	0	---	0.00	29.946 
15:25	79.6	79.6	81.3	59	64.0	0	3	292	0.00	29.946 
15:30	80.1	80.1	81.5	56	63.0	0	1	292	0.00	29.941 
15:35	80.3	80.3	81.6	55	62.6	0	0	---	0.00	29.941 
15:40	80.3	80.3	81.6	55	62.6	0	0	---	0.00	29.941 
15:45	80.3	80.3	81.7	56	63.1	0	1	292	0.00	29.938 
15:50	80.3	80.3	81.7	56	63.1	0	1	292	0.00	29.938 
15:55	80.1	80.1	81.3	54	61.9	0	1	292	0.00	29.938 
16:00	79.9	79.9	81.1	54	61.7	0	1	292	0.00	29.930 
16:05	79.8	79.8	81.3	57	63.2	0	1	292	0.00	29.930 
16:10	79.8	79.8	81.3	57	63.2	0	1	292	0.00	29.930 
16:15	79.9	79.9	81.3	56	62.8	0	2	292	0.00	29.921 
16:20	80.1	80.1	81.3	54	61.9	0	2	292	0.00	29.921 
16:25	80.1	80.1	81.4	55	62.4	0	1	292	0.00	29.921 
16:30	80.3	80.3	81.7	56	63.1	0	1	292	0.00	29.919 
16:35	80.7	80.7	81.9	54	62.5	0	2	292	0.00	29.919 
16:40	80.7	80.7	81.8	53	62.0	0	2	292	0.00	29.919 
16:45	80.7	80.7	81.9	54	62.5	0	2	292	0.00	29.915 
16:50	80.7	80.7	81.9	54	62.5	0	1	292	0.00	29.915 
16:55	80.7	80.7	81.8	53	62.0	0	0	---	0.00	29.915 
17:00	80.7	80.7	81.8	53	62.0	0	1	292	0.00	29.911 
17:05	80.7	80.7	81.8	53	62.0	0	1	292	0.00	29.911 
17:10	80.7	80.7	81.8	53	62.0	0	2	292	0.00	29.911 
17:15	80.5	80.5	81.6	53	61.8	0	2	292	0.00	29.912 
17:20	80.1	80.1	81.3	54	61.9	0	1	292	0.00	29.912 
17:25	79.9	79.9	81.1	54	61.7	0	0	---	0.00	29.912 
17:30	79.9	79.9	81.1	54	61.7	0	3	292	0.00	29.914 
17:35	80.1	80.1	81.4	55	62.4	0	1	292	0.00	29.914 
17:40	80.1	80.1	81.1	52	60.9	0	1	292	0.00	29.914 
17:45	80.1	80.1	81.2	53	61.4	0	0	---	0.00	29.907 
17:50	79.9	79.9	81.1	54	61.7	0	0	---	0.00	29.907 
17:55	79.9	79.9	81.2	55	62.3	0	0	---	0.00	29.907 
18:00	79.6	79.6	80.8	54	61.5	0	1	292	0.00	29.909 
18:05	79.6	79.6	80.9	55	62.0	0	0	---	0.00	29.909 
18:10	79.4	79.4	80.8	56	62.3	0	0	---	0.00	29.909 
18:15	79.2	79.2	80.5	55	61.6	0	1	292	0.00	29.909 
18:20	79.0	79.0	80.4	56	61.9	0	0	---	0.00	29.909 
18:25	78.8	78.8	80.1	55	61.2	0	1	292	0.00	29.909 
18:30	78.8	78.8	80.1	55	61.2	0	1	292	0.00	29.910 
18:35	78.6	78.6	80.0	56	61.6	0	0	---	0.00	29.910 
18:40	78.5	78.5	79.9	56	61.5	0	0	---	0.00	29.910 
18:45	78.3	78.3	79.8	57	61.8	0	0	---	0.00	29.914 
18:50	77.9	77.9	79.5	57	61.4	0	0	---	0.00	29.914 
18:55	77.7	77.7	79.3	57	61.2	0	0	---	0.00	29.914 
19:00	77.4	77.4	79.1	58	61.4	0	0	---	0.00	29.920 
19:05	77.2	77.2	78.9	58	61.3	0	0	---	0.00	29.920 
19:10	77.0	77.0	78.8	58	61.1	0	0	---	0.00	29.920 
19:15	76.8	76.8	78.6	59	61.4	0	0	---	0.00	29.922 
19:20	76.7	76.7	78.5	59	61.3	0	0	---	0.00	29.922 
19:25	76.3	76.3	78.2	60	61.4	0	0	---	0.00	29.922 
19:30	76.1	76.1	78.1	61	61.7	0	0	---	0.00	29.924 
19:35	75.8	75.8	77.8	62	61.8	0	0	---	0.00	29.924 
19:40	75.3	75.3	77.4	63	61.8	0	0	---	0.00	29.924 
19:45	74.9	74.9	74.9	64	61.9	0	0	---	0.00	29.925 
19:50	74.6	74.6	74.6	65	62.0	0	0	---	0.00	29.925 
19:55	74.2	74.2	74.2	66	62.1	0	0	---	0.00	29.925 
20:00	74.0	74.0	74.0	67	62.3	0	0	---	0.00	29.924 
20:05	73.7	73.7	73.7	68	62.5	0	0	---	0.00	29.924 
20:10	73.5	73.5	73.5	69	62.7	0	0	---	0.00	29.924 
20:15	73.2	73.2	73.2	70	62.8	0	0	---	0.00	29.925 
20:20	73.0	73.0	73.0	71	63.0	0	0	---	0.00	29.925 
20:25	72.7	72.7	72.7	72	63.1	0	0	---	0.00	29.925 
20:30	72.5	72.5	72.5	73	63.3	0	0	---	0.00	29.927 
20:35	72.3	72.3	72.3	73	63.1	0	0	---	0.00	29.927 
20:40	72.1	72.1	72.1	73	63.0	0	0	---	0.00	29.927 
20:45	71.8	71.8	71.8	74	63.1	0	0	---	0.00	29.929 
20:50	71.6	71.6	71.6	74	62.9	0	0	---	0.00	29.929 
20:55	71.3	71.3	71.3	75	63.0	0	0	---	0.00	29.929 
21:00	71.1	71.1	71.1	76	63.1	0	0	---	0.00	29.931 
21:05	70.8	70.8	70.8	76	62.8	0	0	---	0.00	29.931 
21:10	70.6	70.6	70.6	77	63.0	0	0	---	0.00	29.931 
21:15	70.4	70.4	70.4	77	62.8	0	0	---	0.00	29.937 
21:20	70.3	70.3	70.3	78	63.1	0	0	---	0.00	29.937 
21:25	70.1	70.1	70.1	78	62.9	0	0	---	0.00	29.937 
21:30	69.8	69.8	69.8	79	63.0	0	0	---	0.00	29.943 
21:35	69.6	69.6	69.6	79	62.8	0	0	---	0.00	29.943 
21:40	69.4	69.4	69.4	81	63.3	0	0	---	0.00	29.943 
21:45	69.4	69.4	69.4	81	63.3	0	0	---	0.00	29.944 
21:50	69.3	69.3	69.3	81	63.2	0	0	---	0.00	29.944 
21:55	69.3	69.3	69.3	82	63.6	0	0	---	0.00	29.944 
22:00	69.1	69.1	69.1	82	63.4	0	0	---	0.00	29.943 
22:05	68.9	68.9	68.9	82	63.2	0	0	---	0.00	29.943 
22:10	68.8	68.8	68.8	82	63.1	0	0	---	0.00	29.943 
22:15	68.4	68.4	68.4	83	63.0	0	0	---	0.00	29.938 
22:20	68.3	68.3	68.3	83	62.9	0	0	---	0.00	29.938 
22:25	68.1	68.1	68.1	84	63.1	0	0	---	0.00	29.938 
22:30	67.9	67.9	67.9	84	62.9	0	0	---	0.00	29.938 
22:35	67.8	67.8	67.8	84	62.8	0	0	---	0.00	29.938 
22:40	67.4	67.4	67.4	85	62.7	0	0	---	0.00	29.938 
22:45	67.3	67.3	67.3	85	62.6	0	0	---	0.00	29.938 
22:50	67.3	67.3	67.3	85	62.6	0	0	---	0.00	29.938 
22:55	67.1	67.1	67.1	86	62.8	0	0	---	0.00	29.938 
23:00	66.9	66.9	66.9	86	62.6	0	0	---	0.00	29.939 
23:05	66.8	66.8	66.8	86	62.5	0	0	---	0.00	29.939 
23:10	66.6	66.6	66.6	86	62.3	0	0	---	0.00	29.939 
23:15	66.4	66.4	66.4	87	62.4	0	0	---	0.00	29.932 
23:20	66.4	66.4	66.4	87	62.4	0	0	---	0.00	29.932 
23:25	66.3	66.3	66.3	87	62.3	0	0	---	0.00	29.932 
23:30	66.1	66.1	66.1	87	62.1	0	0	---	0.00	29.935 
23:35	66.0	66.0	66.0	88	62.3	0	0	---	0.00	29.935 
23:40	65.8	65.8	65.8	88	62.1	0	0	---	0.00	29.935 
23:45	65.6	65.6	65.6	88	61.9	0	0	---	0.00	29.935 
23:50	65.6	65.6	65.6	88	61.9	0	0	---	0.00	29.935 
23:55	65.5	65.5	65.5	88	61.8	0	0	---	0.00	29.935 

CoCoRaHS
IN-AL-39
A2 Web Hosting
Creative Commons License
GoDaddy
search engine by freefind advanced

loaded 2018-11-15 06:26:34 • last modified 2010-11-18 10:43:29
Privacy PolicyDisclaimer
• wx.awcolley.com is powered by PmWiki v.2002016 •
• all content (unless otherwise noted) © 2018 A W Colley